Time;durP1;ratioP1;P1;durP2;ratioP2;P2;SDS_P1;SDS_P2;PMS_P1;PMS_P2;Temp;Humidity;BMP_temperature;BMP_pressure;BME280_temperature;BME280_humidity;BME280_pressure;Samples;Min_cycle;Max_cycle;Signal;HPM_P1;HPM_P2
2023/11/16 00:00:47;;;;;;;;;23.00;23.00;;;;;;;;5060675;28;45972;-77
2023/11/16 00:03:13;;;;;;;;;21.67;19.00;;;;;;;;5059234;28;45260;-76
2023/11/16 00:05:42;;;;;;;;;23.00;20.67;;;;;;;;5060597;28;45248;-77
2023/11/16 00:08:07;;;;;;;;;20.00;18.00;;;;;;;;5060245;28;45467;-77
2023/11/16 00:10:35;;;;;;;;;22.00;21.00;;;;;;;;5060035;28;47124;-76
2023/11/16 00:13:10;;;;;;;;;21.67;18.67;;;;;;;;5075893;28;45344;-76
2023/11/16 00:15:35;;;;;;;;;22.00;20.33;;;;;;;;5060168;28;45330;-77
2023/11/16 00:18:03;;;;;;;;;24.00;22.67;;;;;;;;5059948;28;45347;-77
2023/11/16 00:20:28;;;;;;;;;24.33;22.33;;;;;;;;5060241;28;45270;-77
2023/11/16 00:22:53;;;;;;;;;20.00;20.00;;;;;;;;5058994;28;45270;-77
2023/11/16 00:25:19;;;;;;;;;18.50;18.50;;;;;;;;5060537;28;45165;-76
2023/11/16 00:27:44;;;;;;;;;20.67;19.67;;;;;;;;5060170;28;46111;-77
2023/11/16 00:30:10;;;;;;;;;21.33;19.33;;;;;;;;5075732;28;46075;-77
2023/11/16 00:32:35;;;;;;;;;17.67;17.00;;;;;;;;5080072;28;45246;-77
2023/11/16 00:35:00;;;;;;;;;21.67;19.00;;;;;;;;5080554;28;45427;-77
2023/11/16 00:37:25;;;;;;;;;19.67;18.33;;;;;;;;5080159;28;45284;-77
2023/11/16 00:39:52;;;;;;;;;30.67;28.67;;;;;;;;5061873;28;47100;-76
2023/11/16 00:42:17;;;;;;;;;27.33;26.00;;;;;;;;5080249;28;45333;-76
2023/11/16 00:44:42;;;;;;;;;27.00;25.67;;;;;;;;5080384;28;45349;-76
2023/11/16 00:47:08;;;;;;;;;29.00;27.67;;;;;;;;5079976;28;45490;-76
2023/11/16 00:49:33;;;;;;;;;23.67;22.00;;;;;;;;5061709;28;48230;-77
2023/11/16 00:51:59;;;;;;;;;22.67;22.00;;;;;;;;5080024;28;45326;-77
2023/11/16 00:54:24;;;;;;;;;26.33;22.67;;;;;;;;5080145;28;45441;-76
2023/11/16 00:56:49;;;;;;;;;23.25;19.75;;;;;;;;5080253;28;45352;-77
2023/11/16 00:59:15;;;;;;;;;27.00;22.33;;;;;;;;5079933;28;46919;-77
2023/11/16 01:01:40;;;;;;;;;3.00;1.00;;;;;;;;5079838;28;45300;-76
2023/11/16 01:04:06;;;;;;;;;16.67;16.67;;;;;;;;5061948;28;45662;-76
2023/11/16 01:06:31;;;;;;;;;22.00;21.00;;;;;;;;5079725;28;45504;-77
2023/11/16 01:08:57;;;;;;;;;21.67;19.00;;;;;;;;5079405;28;46350;-77
2023/11/16 01:11:27;;;;;;;;;20.67;20.67;;;;;;;;5079829;28;45214;-77
2023/11/16 01:13:56;;;;;;;;;21.33;20.00;;;;;;;;5079853;28;45327;-76
2023/11/16 01:16:25;;;;;;;;;18.00;16.33;;;;;;;;5079604;28;45309;-76
2023/11/16 01:18:50;;;;;;;;;22.00;19.33;;;;;;;;5079142;28;45378;-77
2023/11/16 01:21:16;;;;;;;;;18.67;18.67;;;;;;;;5079543;28;45314;-77
2023/11/16 01:23:43;;;;;;;;;21.33;20.00;;;;;;;;5079715;28;45403;-76
2023/11/16 01:26:14;;;;;;;;;20.33;20.00;;;;;;;;5064214;28;46093;-76
2023/11/16 01:28:45;;;;;;;;;24.00;20.67;;;;;;;;5082854;28;45512;-77
2023/11/16 01:31:10;;;;;;;;;23.00;20.67;;;;;;;;5083355;28;45356;-77
2023/11/16 01:33:36;;;;;;;;;19.67;19.67;;;;;;;;5083180;28;45386;-77
2023/11/16 01:36:01;;;;;;;;;24.25;21.50;;;;;;;;5083192;28;45240;-77
2023/11/16 01:38:26;;;;;;;;;26.33;24.33;;;;;;;;5083111;28;46099;-76
2023/11/16 01:40:52;;;;;;;;;29.67;26.67;;;;;;;;5083015;28;45319;-76
2023/11/16 01:43:17;;;;;;;;;21.67;21.00;;;;;;;;5083267;28;45378;-77
2023/11/16 01:45:43;;;;;;;;;23.75;20.00;;;;;;;;5064845;28;45953;-77
2023/11/16 01:48:09;;;;;;;;;23.00;23.00;;;;;;;;5082646;28;45501;-76
2023/11/16 01:50:35;;;;;;;;;23.67;22.67;;;;;;;;5082894;28;45568;-76
2023/11/16 01:53:05;;;;;;;;;21.00;20.67;;;;;;;;5082857;28;45272;-77
2023/11/16 01:55:31;;;;;;;;;21.33;21.33;;;;;;;;5082775;28;45269;-77
2023/11/16 01:57:58;;;;;;;;;19.33;18.00;;;;;;;;5082490;28;46438;-77
2023/11/16 02:00:23;;;;;;;;;19.00;18.33;;;;;;;;5082790;28;45266;-77
2023/11/16 02:02:49;;;;;;;;;23.00;21.00;;;;;;;;5082582;28;45520;-77
2023/11/16 02:05:15;;;;;;;;;19.33;17.67;;;;;;;;5064439;28;45828;-77
2023/11/16 02:07:40;;;;;;;;;14.00;14.00;;;;;;;;5064136;28;47570;-77
2023/11/16 02:10:06;;;;;;;;;19.00;16.75;;;;;;;;5082619;28;45177;-76
2023/11/16 02:12:31;;;;;;;;;20.33;18.67;;;;;;;;5082785;28;45369;-76
2023/11/16 02:14:56;;;;;;;;;16.67;16.33;;;;;;;;5082441;28;45355;-77
2023/11/16 02:17:21;;;;;;;;;18.50;18.00;;;;;;;;5082362;28;45279;-76
2023/11/16 02:19:48;;;;;;;;;22.00;18.67;;;;;;;;5082259;28;45279;-77
2023/11/16 02:22:14;;;;;;;;;19.00;19.00;;;;;;;;5082616;28;45334;-76
2023/11/16 02:24:39;;;;;;;;;15.67;15.67;;;;;;;;5082398;28;45297;-77
2023/11/16 02:27:05;;;;;;;;;17.00;17.00;;;;;;;;5082463;28;46269;-76
2023/11/16 02:29:30;;;;;;;;;25.00;23.00;;;;;;;;5072054;28;45399;-77
2023/11/16 02:31:55;;;;;;;;;27.00;24.33;;;;;;;;5062173;28;45318;-76
2023/11/16 02:34:20;;;;;;;;;25.33;23.00;;;;;;;;5060505;28;45883;-77
2023/11/16 02:36:45;;;;;;;;;28.67;23.00;;;;;;;;5060347;28;46415;-77
2023/11/16 02:39:15;;;;;;;;;28.00;26.00;;;;;;;;5062101;28;45409;-76
2023/11/16 02:41:41;;;;;;;;;22.00;22.00;;;;;;;;5062062;28;45322;-76
2023/11/16 02:44:07;;;;;;;;;20.00;20.00;;;;;;;;5061528;28;45279;-77
2023/11/16 02:46:32;;;;;;;;;23.33;20.33;;;;;;;;5061485;28;47214;-77
2023/11/16 02:48:57;;;;;;;;;21.33;21.33;;;;;;;;5061791;28;45492;-77
2023/11/16 02:51:23;;;;;;;;;24.67;22.00;;;;;;;;5061821;28;45249;-76
2023/11/16 02:53:48;;;;;;;;;23.00;19.33;;;;;;;;5061813;28;45212;-77
2023/11/16 02:56:13;;;;;;;;;16.00;15.00;;;;;;;;5060263;28;47204;-77
2023/11/16 02:58:41;;;;;;;;;13.00;12.00;;;;;;;;5061722;28;45459;-77
2023/11/16 03:01:08;;;;;;;;;19.33;17.67;;;;;;;;5061744;28;45323;-76
2023/11/16 03:03:34;;;;;;;;;17.00;16.00;;;;;;;;5061192;28;46132;-77
2023/11/16 03:05:59;;;;;;;;;16.00;14.00;;;;;;;;5061098;28;46150;-77
2023/11/16 03:08:25;;;;;;;;;15.00;14.67;;;;;;;;5061360;28;45473;-76
2023/11/16 03:10:50;;;;;;;;;11.00;11.00;;;;;;;;5061532;28;45165;-77
2023/11/16 03:13:16;;;;;;;;;8.75;8.75;;;;;;;;5060038;28;45955;-76
2023/11/16 03:15:41;;;;;;;;;13.00;12.00;;;;;;;;5061028;28;45379;-77
2023/11/16 03:18:06;;;;;;;;;13.67;13.33;;;;;;;;5061119;28;45312;-77
2023/11/16 03:20:32;;;;;;;;;12.75;12.75;;;;;;;;5061525;28;45268;-77
2023/11/16 03:22:57;;;;;;;;;16.00;13.67;;;;;;;;5061233;28;45312;-77
2023/11/16 03:25:22;;;;;;;;;16.00;15.00;;;;;;;;5061137;28;46198;-76
2023/11/16 03:27:48;;;;;;;;;13.33;13.33;;;;;;;;5061032;28;45384;-77
2023/11/16 03:30:16;;;;;;;;;15.67;14.33;;;;;;;;5077293;28;45493;-77
2023/11/16 03:32:41;;;;;;;;;16.00;13.33;;;;;;;;5079753;28;46140;-77
2023/11/16 03:35:06;;;;;;;;;16.00;16.00;;;;;;;;5062881;28;47633;-77
2023/11/16 03:37:32;;;;;;;;;13.67;13.67;;;;;;;;5061129;28;46479;-77
2023/11/16 03:39:57;;;;;;;;;9.00;8.00;;;;;;;;5042855;28;45317;-77
2023/11/16 03:42:23;;;;;;;;;15.33;14.00;;;;;;;;5060905;28;45328;-77
2023/11/16 03:44:50;;;;;;;;;11.67;11.00;;;;;;;;5060740;28;46475;-77
2023/11/16 03:47:15;;;;;;;;;18.00;16.67;;;;;;;;5060228;28;45232;-77
2023/11/16 03:49:40;;;;;;;;;11.33;10.67;;;;;;;;5059345;28;45418;-77
2023/11/16 03:52:06;;;;;;;;;17.67;14.00;;;;;;;;5060633;28;45280;-78
2023/11/16 03:54:31;;;;;;;;;15.67;15.67;;;;;;;;5060700;28;46183;-77
2023/11/16 03:56:56;;;;;;;;;13.25;12.50;;;;;;;;5060929;28;45494;-77
2023/11/16 03:59:24;;;;;;;;;12.00;12.00;;;;;;;;5060991;28;45146;-77
2023/11/16 04:01:49;;;;;;;;;15.33;13.67;;;;;;;;5060384;28;45515;-77
2023/11/16 04:04:14;;;;;;;;;14.00;12.00;;;;;;;;5060521;28;46237;-77
2023/11/16 04:06:40;;;;;;;;;11.67;11.67;;;;;;;;5042363;28;45278;-76
2023/11/16 04:09:09;;;;;;;;;14.67;12.00;;;;;;;;5042300;28;45356;-77
2023/11/16 04:11:38;;;;;;;;;11.67;11.00;;;;;;;;5060455;28;45549;-77
2023/11/16 04:14:06;;;;;;;;;13.00;12.67;;;;;;;;5038675;28;48126;-76
2023/11/16 04:16:32;;;;;;;;;14.33;11.33;;;;;;;;5055474;28;45305;-77
2023/11/16 04:18:58;;;;;;;;;11.33;11.33;;;;;;;;5040379;28;45295;-77
2023/11/16 04:21:25;;;;;;;;;14.33;12.33;;;;;;;;5055580;28;45633;-77
2023/11/16 04:23:52;;;;;;;;;15.00;14.33;;;;;;;;5039929;28;47021;-77
2023/11/16 04:26:20;;;;;;;;;11.33;11.33;;;;;;;;5040101;28;45234;-78
2023/11/16 04:28:46;;;;;;;;;12.67;12.67;;;;;;;;5055180;28;45375;-77
2023/11/16 04:31:12;;;;;;;;;13.00;13.00;;;;;;;;5038543;28;45470;-77
2023/11/16 04:33:37;;;;;;;;;12.33;12.33;;;;;;;;5039530;28;46973;-76
2023/11/16 04:36:05;;;;;;;;;14.00;13.67;;;;;;;;5038486;28;45347;-76
2023/11/16 04:38:31;;;;;;;;;12.67;12.00;;;;;;;;5040133;28;45399;-77
2023/11/16 04:40:56;;;;;;;;;16.33;14.00;;;;;;;;5039887;28;45297;-78
2023/11/16 04:43:22;;;;;;;;;13.25;13.25;;;;;;;;5039983;28;45363;-77
2023/11/16 04:45:50;;;;;;;;;12.00;11.00;;;;;;;;5038481;28;45536;-77
2023/11/16 04:48:17;;;;;;;;;11.33;11.33;;;;;;;;5039711;28;45367;-77
2023/11/16 04:50:43;;;;;;;;;14.33;12.00;;;;;;;;5039614;28;45487;-77
2023/11/16 04:53:08;;;;;;;;;14.00;13.33;;;;;;;;5039420;28;47254;-77
2023/11/16 04:55:35;;;;;;;;;13.25;12.50;;;;;;;;5039883;28;45426;-77
2023/11/16 04:58:00;;;;;;;;;11.67;11.67;;;;;;;;5039900;28;45320;-77
2023/11/16 05:00:25;;;;;;;;;13.33;11.67;;;;;;;;5038322;28;45304;-77
2023/11/16 05:02:50;;;;;;;;;10.00;10.00;;;;;;;;5039519;28;46048;-77
2023/11/16 05:05:16;;;;;;;;;13.00;11.33;;;;;;;;5038117;28;45373;-77
2023/11/16 05:07:42;;;;;;;;;15.00;13.00;;;;;;;;5038105;28;45348;-77
2023/11/16 05:10:10;;;;;;;;;13.67;13.67;;;;;;;;5039163;28;46095;-77
2023/11/16 05:12:35;;;;;;;;;14.67;14.33;;;;;;;;5039323;28;45346;-77
2023/11/16 05:15:00;;;;;;;;;12.33;11.00;;;;;;;;5064512;28;45444;-77
2023/11/16 05:17:26;;;;;;;;;7.67;7.33;;;;;;;;5079755;28;45304;-77
2023/11/16 05:19:51;;;;;;;;;11.00;11.00;;;;;;;;5079702;28;45268;-77
2023/11/16 05:22:17;;;;;;;;;16.67;15.00;;;;;;;;5079569;28;45285;-77
2023/11/16 05:24:43;;;;;;;;;11.67;11.00;;;;;;;;5079708;28;45303;-77
2023/11/16 05:27:08;;;;;;;;;8.33;8.33;;;;;;;;5079925;28;45362;-76
2023/11/16 05:29:33;;;;;;;;;10.33;9.00;;;;;;;;5057986;28;46047;-77
2023/11/16 05:31:58;;;;;;;;;9.67;9.67;;;;;;;;5059179;28;45315;-77
2023/11/16 05:34:23;;;;;;;;;15.00;13.00;;;;;;;;5059352;28;45302;-77
2023/11/16 05:36:49;;;;;;;;;13.33;11.67;;;;;;;;5059239;28;45291;-77
2023/11/16 05:39:16;;;;;;;;;11.00;11.00;;;;;;;;5059385;28;45746;-77
2023/11/16 05:41:41;;;;;;;;;11.33;8.00;;;;;;;;5074632;28;47410;-77
2023/11/16 05:44:07;;;;;;;;;9.00;9.00;;;;;;;;5059305;28;45168;-77
2023/11/16 05:46:32;;;;;;;;;14.67;12.00;;;;;;;;5074723;28;45422;-77
2023/11/16 05:48:58;;;;;;;;;10.00;9.00;;;;;;;;5059022;28;45479;-77
2023/11/16 05:51:23;;;;;;;;;12.75;11.00;;;;;;;;5074639;28;47576;-77
2023/11/16 05:53:48;;;;;;;;;9.33;8.67;;;;;;;;5059258;28;45196;-77
2023/11/16 05:56:13;;;;;;;;;8.00;7.00;;;;;;;;5074633;28;45743;-77
2023/11/16 05:58:38;;;;;;;;;13.33;12.00;;;;;;;;5074108;28;47331;-77
2023/11/16 06:01:04;;;;;;;;;8.00;8.00;;;;;;;;5057636;28;45418;-77
2023/11/16 06:03:29;;;;;;;;;10.67;9.00;;;;;;;;5057816;28;45551;-77
2023/11/16 06:05:54;;;;;;;;;11.67;10.00;;;;;;;;5073835;28;45323;-76
2023/11/16 06:08:20;;;;;;;;;9.67;9.67;;;;;;;;5058459;28;45342;-77
2023/11/16 06:10:45;;;;;;;;;10.33;10.33;;;;;;;;5059743;28;46137;-76
2023/11/16 06:13:10;;;;;;;;;9.33;9.00;;;;;;;;5062464;28;45358;-77
2023/11/16 06:15:36;;;;;;;;;14.00;13.00;;;;;;;;5062163;28;45324;-77
2023/11/16 06:18:02;;;;;;;;;11.33;11.33;;;;;;;;5062093;28;45275;-76
2023/11/16 06:20:28;;;;;;;;;9.67;8.00;;;;;;;;5077553;28;47632;-76
2023/11/16 06:22:53;;;;;;;;;11.00;8.67;;;;;;;;5062037;28;45364;-77
2023/11/16 06:25:19;;;;;;;;;10.67;9.67;;;;;;;;5062205;28;45303;-77
2023/11/16 06:27:45;;;;;;;;;11.00;11.00;;;;;;;;5062163;28;45285;-76
2023/11/16 06:30:12;;;;;;;;;10.67;10.33;;;;;;;;5076736;28;45256;-76
2023/11/16 06:32:37;;;;;;;;;11.00;9.33;;;;;;;;5081741;28;45226;-76
2023/11/16 06:35:03;;;;;;;;;10.33;9.00;;;;;;;;5064426;28;45240;-78
2023/11/16 06:37:28;;;;;;;;;9.67;9.00;;;;;;;;5063704;28;46258;-77
2023/11/16 06:39:53;;;;;;;;;10.67;10.67;;;;;;;;5082292;28;45349;-77
2023/11/16 06:42:20;;;;;;;;;10.33;10.00;;;;;;;;5081855;28;45395;-77
2023/11/16 06:44:48;;;;;;;;;10.00;10.00;;;;;;;;5082365;28;45330;-77
2023/11/16 06:47:15;;;;;;;;;9.00;9.00;;;;;;;;5064000;28;47422;-78
2023/11/16 06:49:41;;;;;;;;;9.00;9.00;;;;;;;;5082088;28;45453;-77
2023/11/16 06:52:06;;;;;;;;;8.67;8.00;;;;;;;;5082059;28;45357;-77
2023/11/16 06:54:33;;;;;;;;;8.00;8.00;;;;;;;;5064065;28;45502;-78
2023/11/16 06:56:59;;;;;;;;;9.67;8.00;;;;;;;;5082005;28;45386;-77
2023/11/16 06:59:24;;;;;;;;;8.67;7.67;;;;;;;;5079982;28;48218;-77
2023/11/16 07:01:49;;;;;;;;;8.33;7.00;;;;;;;;5062483;28;45332;-77
2023/11/16 07:04:16;;;;;;;;;8.67;7.33;;;;;;;;5081466;28;45344;-77
2023/11/16 07:06:42;;;;;;;;;8.00;8.00;;;;;;;;5081834;28;45489;-77
2023/11/16 07:09:08;;;;;;;;;7.00;7.00;;;;;;;;5063474;28;45551;-77
2023/11/16 07:11:33;;;;;;;;;8.67;7.67;;;;;;;;5063432;28;45389;-79
2023/11/16 07:13:58;;;;;;;;;7.33;7.33;;;;;;;;5081690;28;45371;-77
2023/11/16 07:16:23;;;;;;;;;7.00;7.00;;;;;;;;5082633;28;45400;-77
2023/11/16 07:18:48;;;;;;;;;7.00;6.00;;;;;;;;5081820;28;46462;-78
2023/11/16 07:21:14;;;;;;;;;7.33;5.33;;;;;;;;5063392;28;45320;-77
2023/11/16 07:23:39;;;;;;;;;8.33;7.00;;;;;;;;5080964;28;45232;-77
2023/11/16 07:26:08;;;;;;;;;6.00;5.67;;;;;;;;5081573;28;45249;-77
2023/11/16 07:28:34;;;;;;;;;7.33;7.33;;;;;;;;5063181;28;48111;-79
2023/11/16 07:30:59;;;;;;;;;5.33;4.67;;;;;;;;5081322;28;45295;-79
2023/11/16 07:33:24;;;;;;;;;6.00;5.00;;;;;;;;5080429;28;45403;-78
2023/11/16 07:35:50;;;;;;;;;5.67;5.67;;;;;;;;5081066;28;45241;-77
2023/11/16 07:38:17;;;;;;;;;7.33;7.00;;;;;;;;5072291;28;46237;-79
2023/11/16 07:40:43;;;;;;;;;7.00;6.67;;;;;;;;5079354;28;45406;-78
2023/11/16 07:43:08;;;;;;;;;6.33;6.00;;;;;;;;5079530;28;45343;-76
2023/11/16 07:45:34;;;;;;;;;6.33;6.00;;;;;;;;5062420;28;46249;-78
2023/11/16 07:48:01;;;;;;;;;6.33;6.33;;;;;;;;5080406;28;45329;-78
2023/11/16 07:50:30;;;;;;;;;9.00;6.33;;;;;;;;5062975;28;45806;-79
2023/11/16 07:52:55;;;;;;;;;5.00;5.00;;;;;;;;5082782;28;45300;-77
2023/11/16 07:55:21;;;;;;;;;7.00;6.33;;;;;;;;5080336;28;45337;-77
2023/11/16 07:57:47;;;;;;;;;5.00;5.00;;;;;;;;5061590;28;46322;-77
2023/11/16 08:00:16;;;;;;;;;5.33;5.33;;;;;;;;5080861;28;45403;-77
2023/11/16 08:05:26;;;;;;;;;3.67;3.67;;;;;;;;5080294;28;45342;-77
2023/11/16 08:07:52;;;;;;;;;4.00;3.33;;;;;;;;5080049;28;45429;-78
2023/11/16 08:10:18;;;;;;;;;4.00;4.00;;;;;;;;5081005;28;45285;-78
2023/11/16 08:12:43;;;;;;;;;3.00;3.00;;;;;;;;5061710;28;45374;-78
2023/11/16 08:15:09;;;;;;;;;5.00;4.75;;;;;;;;5080805;28;45228;-77
2023/11/16 08:17:34;;;;;;;;;6.00;4.00;;;;;;;;5061753;28;47414;-79
2023/11/16 08:19:59;;;;;;;;;5.50;5.50;;;;;;;;5080273;28;45390;-77
2023/11/16 08:22:25;;;;;;;;;5.00;3.00;;;;;;;;5080180;28;45363;-77
2023/11/16 08:24:50;;;;;;;;;4.00;4.00;;;;;;;;5080166;28;45252;-79
2023/11/16 08:27:17;;;;;;;;;6.33;5.00;;;;;;;;5062398;28;46921;-79
2023/11/16 08:29:42;;;;;;;;;4.33;4.33;;;;;;;;5050754;28;45439;-78
2023/11/16 08:32:08;;;;;;;;;4.00;3.75;;;;;;;;5075725;28;45899;-78
2023/11/16 08:34:34;;;;;;;;;4.67;4.67;;;;;;;;5081577;27;45540;-80
2023/11/16 08:37:00;;;;;;;;;4.00;4.00;;;;;;;;5080462;28;45832;-77
2023/11/16 08:39:26;;;;;;;;;3.33;3.33;;;;;;;;5080933;28;45376;-77
2023/11/16 08:41:52;;;;;;;;;6.00;5.00;;;;;;;;5070171;28;45466;-78
2023/11/16 08:44:18;;;;;;;;;5.00;5.00;;;;;;;;5082934;28;45562;-77
2023/11/16 08:46:45;;;;;;;;;2.33;2.33;;;;;;;;5079998;28;45311;-77
2023/11/16 08:49:11;;;;;;;;;3.33;3.33;;;;;;;;5080007;28;45416;-77
2023/11/16 08:51:38;;;;;;;;;3.00;3.00;;;;;;;;5078560;28;45435;-76
2023/11/16 08:54:04;;;;;;;;;3.00;3.00;;;;;;;;5079384;28;45271;-78
2023/11/16 08:56:31;;;;;;;;;4.33;4.33;;;;;;;;5079110;28;45279;-79
2023/11/16 08:58:58;;;;;;;;;4.00;4.00;;;;;;;;5079775;28;45357;-78
2023/11/16 09:01:23;;;;;;;;;3.00;3.00;;;;;;;;5079187;28;45292;-77
2023/11/16 09:03:50;;;;;;;;;5.00;4.00;;;;;;;;5078710;28;45477;-77
2023/11/16 09:06:16;;;;;;;;;3.00;3.00;;;;;;;;5079023;28;45900;-78
2023/11/16 09:08:46;;;;;;;;;2.00;2.00;;;;;;;;5079058;28;45268;-80
2023/11/16 09:11:16;;;;;;;;;2.00;2.00;;;;;;;;5076569;28;45255;-78
2023/11/16 09:13:42;;;;;;;;;2.00;2.00;;;;;;;;5078953;28;45316;-79
2023/11/16 09:16:07;;;;;;;;;5.00;5.00;;;;;;;;5060970;28;47910;-78
2023/11/16 09:18:32;;;;;;;;;5.00;4.33;;;;;;;;5079829;28;45413;-78
2023/11/16 09:20:58;;;;;;;;;5.67;4.67;;;;;;;;5081505;28;45404;-78
2023/11/16 09:23:24;;;;;;;;;4.00;4.00;;;;;;;;5076045;28;45418;-78
2023/11/16 09:25:50;;;;;;;;;5.00;4.00;;;;;;;;5075893;28;45662;-79
2023/11/16 09:28:15;;;;;;;;;6.00;4.67;;;;;;;;5076018;28;45389;-78
2023/11/16 09:30:43;;;;;;;;;7.00;5.67;;;;;;;;5059801;28;45462;-77
2023/11/16 09:33:09;;;;;;;;;2.67;2.67;;;;;;;;5063871;28;46419;-79
2023/11/16 09:35:35;;;;;;;;;2.00;2.00;;;;;;;;5061252;28;47205;-78
2023/11/16 09:38:08;;;;;;;;;7.67;5.67;;;;;;;;5056444;28;45314;-78
2023/11/16 09:40:33;;;;;;;;;4.33;4.33;;;;;;;;5057785;28;45374;-78
2023/11/16 09:43:00;;;;;;;;;3.50;2.75;;;;;;;;5072481;28;46989;-77
2023/11/16 09:45:28;;;;;;;;;3.00;3.00;;;;;;;;5057270;28;45343;-77
2023/11/16 09:47:57;;;;;;;;;4.00;4.00;;;;;;;;5077749;28;45326;-77
2023/11/16 09:50:24;;;;;;;;;2.33;2.33;;;;;;;;5065107;28;45298;-76
2023/11/16 09:52:51;;;;;;;;;3.00;3.00;;;;;;;;5064721;28;47445;-77
2023/11/16 09:55:19;;;;;;;;;4.00;3.00;;;;;;;;5064087;27;45454;-77
2023/11/16 09:57:45;;;;;;;;;3.67;3.33;;;;;;;;5081517;28;45311;-79
2023/11/16 10:00:15;;;;;;;;;3.00;3.00;;;;;;;;5081628;28;45259;-77
2023/11/16 10:02:47;;;;;;;;;4.33;3.00;;;;;;;;5062421;28;47003;-77
2023/11/16 10:05:47;;;;;;;;;3.00;3.00;;;;;;;;5080765;28;45268;-77
2023/11/16 10:08:14;;;;;;;;;3.00;3.00;;;;;;;;5080209;28;45667;-77
2023/11/16 10:10:50;;;;;;;;;2.33;2.33;;;;;;;;5081007;28;45420;-77
2023/11/16 10:13:17;;;;;;;;;3.00;3.00;;;;;;;;5063553;28;45300;-77
2023/11/16 10:15:43;;;;;;;;;4.00;2.00;;;;;;;;5081777;28;45320;-79
2023/11/16 10:18:10;;;;;;;;;4.00;4.00;;;;;;;;5081512;28;45228;-77
2023/11/16 10:20:38;;;;;;;;;3.67;3.67;;;;;;;;5080725;28;45393;-77
2023/11/16 10:23:03;;;;;;;;;5.67;5.00;;;;;;;;5081486;28;45453;-78
2023/11/16 10:25:28;;;;;;;;;3.00;3.00;;;;;;;;5082226;28;46161;-77
2023/11/16 10:27:53;;;;;;;;;3.00;3.00;;;;;;;;5081755;28;45699;-77
2023/11/16 10:30:21;;;;;;;;;2.67;2.00;;;;;;;;5081866;28;45543;-78
2023/11/16 10:32:47;;;;;;;;;3.33;3.33;;;;;;;;5081168;28;45296;-77
2023/11/16 10:35:16;;;;;;;;;1.00;1.00;;;;;;;;5067438;28;47390;-78
2023/11/16 10:37:43;;;;;;;;;1.67;1.67;;;;;;;;5064293;28;46022;-77
2023/11/16 10:40:11;;;;;;;;;2.33;2.33;;;;;;;;5062522;28;45375;-77
2023/11/16 10:42:38;;;;;;;;;2.00;2.00;;;;;;;;5073232;28;45454;-77
2023/11/16 10:45:04;;;;;;;;;3.00;2.00;;;;;;;;5072381;28;45461;-78
2023/11/16 10:47:30;;;;;;;;;2.33;1.67;;;;;;;;5060308;28;45399;-77
2023/11/16 10:49:58;;;;;;;;;3.00;3.00;;;;;;;;5079048;28;45566;-76
2023/11/16 10:52:25;;;;;;;;;2.00;2.00;;;;;;;;5077491;28;45633;-77
2023/11/16 10:54:53;;;;;;;;;1.67;1.67;;;;;;;;5077550;28;46063;-77
2023/11/16 10:57:19;;;;;;;;;1.33;1.33;;;;;;;;5079745;28;45435;-77
2023/11/16 10:59:46;;;;;;;;;1.00;1.00;;;;;;;;5081380;28;45287;-76
2023/11/16 11:02:12;;;;;;;;;2.00;2.00;;;;;;;;5080578;28;45323;-79
2023/11/16 11:04:37;;;;;;;;;3.33;2.00;;;;;;;;5062816;28;47292;-79
2023/11/16 11:07:08;;;;;;;;;3.67;1.67;;;;;;;;5062008;28;46413;-80
2023/11/16 11:09:41;;;;;;;;;3.33;3.00;;;;;;;;5081295;28;45314;-77
2023/11/16 11:12:12;;;;;;;;;1.00;1.00;;;;;;;;5081157;28;45967;-78
2023/11/16 11:14:42;;;;;;;;;3.00;2.00;;;;;;;;5080634;28;45372;-78
2023/11/16 11:17:07;;;;;;;;;2.00;2.00;;;;;;;;5062155;28;46103;-78
2023/11/16 11:19:34;;;;;;;;;3.00;2.67;;;;;;;;5062356;28;45329;-79
2023/11/16 11:22:00;;;;;;;;;2.00;2.00;;;;;;;;5081225;28;45587;-80
2023/11/16 11:24:25;;;;;;;;;1.33;1.33;;;;;;;;5063328;28;48089;-80
2023/11/16 11:26:50;;;;;;;;;2.00;1.67;;;;;;;;5058623;28;45575;-78
2023/11/16 11:29:16;;;;;;;;;2.33;1.67;;;;;;;;5060653;28;45499;-80
2023/11/16 11:31:41;;;;;;;;;2.67;2.67;;;;;;;;5080494;28;45402;-79
2023/11/16 11:34:11;;;;;;;;;1.67;1.67;;;;;;;;5080603;28;45637;-80
2023/11/16 11:36:36;;;;;;;;;3.33;3.00;;;;;;;;5080934;28;45287;-79
2023/11/16 11:39:04;;;;;;;;;1.67;1.67;;;;;;;;5080748;28;45383;-78
2023/11/16 11:41:30;;;;;;;;;3.00;2.00;;;;;;;;5080447;28;45403;-78
2023/11/16 11:44:02;;;;;;;;;2.00;2.00;;;;;;;;5079823;28;46082;-79
2023/11/16 11:46:28;;;;;;;;;3.33;3.33;;;;;;;;5073204;28;45220;-77
2023/11/16 11:48:54;;;;;;;;;1.33;1.00;;;;;;;;5080645;28;45378;-80
2023/11/16 11:51:24;;;;;;;;;3.00;1.67;;;;;;;;5079978;28;45374;-81
2023/11/16 11:53:53;;;;;;;;;2.00;2.00;;;;;;;;5076224;28;46608;-80
2023/11/16 11:56:19;;;;;;;;;1.00;1.00;;;;;;;;5079296;28;45910;-80
2023/11/16 11:58:44;;;;;;;;;1.00;1.00;;;;;;;;5079297;28;45469;-79
2023/11/16 12:01:11;;;;;;;;;1.00;1.00;;;;;;;;5061027;28;46222;-79
2023/11/16 12:03:36;;;;;;;;;2.33;2.33;;;;;;;;5064905;28;48084;-79
2023/11/16 12:06:02;;;;;;;;;6.00;3.00;;;;;;;;5081206;28;45388;-79
2023/11/16 12:08:46;;;;;;;;;3.00;3.00;;;;;;;;5069798;28;45502;-79
2023/11/16 12:11:18;;;;;;;;;4.00;4.00;;;;;;;;5079442;28;46162;-78
2023/11/16 12:13:43;;;;;;;;;4.67;4.67;;;;;;;;5058156;28;48378;-77
2023/11/16 12:16:09;;;;;;;;;5.33;4.67;;;;;;;;5061065;28;45535;-78
2023/11/16 12:18:41;;;;;;;;;5.67;5.67;;;;;;;;5079633;28;45452;-80
2023/11/16 12:21:16;;;;;;;;;5.33;4.67;;;;;;;;5060785;28;46239;-78
2023/11/16 12:23:43;;;;;;;;;4.33;4.00;;;;;;;;5077112;28;46159;-79
2023/11/16 12:26:09;;;;;;;;;6.33;6.33;;;;;;;;5079328;28;45277;-80
2023/11/16 12:28:35;;;;;;;;;5.00;5.00;;;;;;;;5075079;28;45781;-80
2023/11/16 12:31:00;;;;;;;;;5.67;5.33;;;;;;;;5059070;28;47177;-80
2023/11/16 12:33:25;;;;;;;;;13.67;12.67;;;;;;;;5077317;28;46206;-79
2023/11/16 12:35:51;;;;;;;;;6.00;6.00;;;;;;;;5076843;28;45411;-79
2023/11/16 12:38:19;;;;;;;;;3.67;3.00;;;;;;;;5060481;28;45453;-80
2023/11/16 12:40:45;;;;;;;;;2.00;2.00;;;;;;;;5066705;28;45298;-78
2023/11/16 12:43:11;;;;;;;;;3.00;3.00;;;;;;;;5057631;28;46505;-79
2023/11/16 12:45:36;;;;;;;;;6.33;6.33;;;;;;;;5057545;28;46077;-80
2023/11/16 12:48:02;;;;;;;;;14.67;13.33;;;;;;;;5059291;28;45247;-80
2023/11/16 12:50:27;;;;;;;;;8.33;8.33;;;;;;;;5059254;28;45413;-80
2023/11/16 12:52:53;;;;;;;;;6.75;6.00;;;;;;;;5057858;27;45998;-80
2023/11/16 12:55:18;;;;;;;;;4.33;4.33;;;;;;;;5048062;28;45383;-79
2023/11/16 12:57:46;;;;;;;;;4.33;3.00;;;;;;;;5077824;28;45290;-79
2023/11/16 13:00:11;;;;;;;;;3.00;3.00;;;;;;;;5079781;28;45319;-80
2023/11/16 13:02:37;;;;;;;;;3.00;2.00;;;;;;;;5079241;28;46170;-78
2023/11/16 13:05:06;;;;;;;;;1.33;1.33;;;;;;;;5078406;28;45333;-79
2023/11/16 13:07:32;;;;;;;;;24.67;22.33;;;;;;;;5079034;28;45229;-79
2023/11/16 13:09:59;;;;;;;;;17.33;15.67;;;;;;;;5077052;28;45457;-79
2023/11/16 13:12:24;;;;;;;;;8.67;7.67;;;;;;;;5078340;28;45412;-80
2023/11/16 13:14:49;;;;;;;;;6.67;6.00;;;;;;;;5060116;28;45469;-80
2023/11/16 13:17:15;;;;;;;;;4.00;4.00;;;;;;;;5078885;28;45324;-80
2023/11/16 13:19:40;;;;;;;;;4.67;3.33;;;;;;;;5060615;28;46190;-79
2023/11/16 13:22:06;;;;;;;;;4.67;4.00;;;;;;;;5077058;28;47192;-79
2023/11/16 13:24:31;;;;;;;;;6.33;6.00;;;;;;;;5079198;28;45411;-80
2023/11/16 13:26:57;;;;;;;;;5.00;5.00;;;;;;;;5079413;28;45386;-80
2023/11/16 13:29:22;;;;;;;;;10.00;8.67;;;;;;;;5074468;28;45436;-80
2023/11/16 13:31:47;;;;;;;;;10.75;8.50;;;;;;;;5056010;28;47194;-80
2023/11/16 13:34:13;;;;;;;;;7.00;7.00;;;;;;;;5077192;28;45491;-81
2023/11/16 13:36:39;;;;;;;;;7.00;6.00;;;;;;;;5060013;28;45317;-80
2023/11/16 13:39:07;;;;;;;;;7.33;6.33;;;;;;;;5056666;28;45908;-80
2023/11/16 13:41:33;;;;;;;;;41.33;34.00;;;;;;;;5058710;28;46018;-79
2023/11/16 13:43:59;;;;;;;;;51.33;41.33;;;;;;;;5057917;28;45355;-79
2023/11/16 13:46:25;;;;;;;;;22.00;17.00;;;;;;;;5058261;28;45454;-80
2023/11/16 13:48:50;;;;;;;;;5.00;5.00;;;;;;;;5056767;28;45634;-81
2023/11/16 13:51:15;;;;;;;;;10.50;7.00;;;;;;;;5059022;28;47201;-79
2023/11/16 13:53:40;;;;;;;;;4.25;4.25;;;;;;;;5077323;28;45627;-80
2023/11/16 13:56:06;;;;;;;;;4.00;3.00;;;;;;;;5078556;28;45490;-79
2023/11/16 13:58:31;;;;;;;;;5.00;5.00;;;;;;;;5058123;28;46637;-80
2023/11/16 14:00:56;;;;;;;;;2.00;2.00;;;;;;;;5078158;28;45500;-80
2023/11/16 14:03:21;;;;;;;;;1.00;1.00;;;;;;;;5077557;28;45421;-80
2023/11/16 14:05:47;;;;;;;;;2.67;2.67;;;;;;;;5077474;28;45518;-80
2023/11/16 14:08:13;;;;;;;;;5.67;4.00;;;;;;;;5078285;28;45408;-80
2023/11/16 14:10:38;;;;;;;;;32.00;29.00;;;;;;;;5077825;28;45930;-80
2023/11/16 14:13:04;;;;;;;;;32.33;29.00;;;;;;;;5077361;28;45370;-80
2023/11/16 14:15:31;;;;;;;;;4.00;2.00;;;;;;;;5075776;28;45399;-80
2023/11/16 14:17:57;;;;;;;;;6.00;6.00;;;;;;;;5076802;28;45354;-81
2023/11/16 14:20:22;;;;;;;;;5.00;4.00;;;;;;;;5077564;28;45354;-81
2023/11/16 14:22:49;;;;;;;;;6.33;6.00;;;;;;;;5077778;28;45366;-80
2023/11/16 14:25:20;;;;;;;;;5.00;4.00;;;;;;;;5077551;28;45579;-80
2023/11/16 14:27:46;;;;;;;;;5.00;5.00;;;;;;;;5070596;28;47208;-81